sensor_id;sensor_type;location;lat;lon;timestamp;P1;durP1;ratioP1;P2;durP2;ratioP2
76357;SDS011;65185;21.060;105.826;2023-04-19T00:01:40;81.70;;;48.92;;
76357;SDS011;65185;21.060;105.826;2023-04-19T00:04:07;83.32;;;47.95;;
76357;SDS011;65185;21.060;105.826;2023-04-19T00:06:33;80.32;;;47.80;;
76357;SDS011;65185;21.060;105.826;2023-04-19T00:09:00;84.10;;;48.45;;
76357;SDS011;65185;21.060;105.826;2023-04-19T00:11:27;81.72;;;48.65;;
76357;SDS011;65185;21.060;105.826;2023-04-19T00:13:53;80.40;;;49.22;;
76357;SDS011;65185;21.060;105.826;2023-04-19T00:16:20;84.45;;;49.80;;
76357;SDS011;65185;21.060;105.826;2023-04-19T00:18:46;77.18;;;47.72;;
76357;SDS011;65185;21.060;105.826;2023-04-19T00:21:12;85.97;;;48.83;;
76357;SDS011;65185;21.060;105.826;2023-04-19T00:23:41;77.32;;;45.65;;
76357;SDS011;65185;21.060;105.826;2023-04-19T00:26:07;80.35;;;47.30;;
76357;SDS011;65185;21.060;105.826;2023-04-19T00:28:35;81.15;;;46.85;;
76357;SDS011;65185;21.060;105.826;2023-04-19T00:31:02;80.80;;;48.08;;
76357;SDS011;65185;21.060;105.826;2023-04-19T00:33:28;78.88;;;46.17;;
76357;SDS011;65185;21.060;105.826;2023-04-19T00:35:55;85.45;;;47.88;;
76357;SDS011;65185;21.060;105.826;2023-04-19T00:38:21;81.38;;;47.08;;
76357;SDS011;65185;21.060;105.826;2023-04-19T00:40:48;79.68;;;45.58;;
76357;SDS011;65185;21.060;105.826;2023-04-19T00:43:17;72.35;;;43.30;;
76357;SDS011;65185;21.060;105.826;2023-04-19T00:45:44;80.05;;;43.85;;
76357;SDS011;65185;21.060;105.826;2023-04-19T00:48:12;80.55;;;45.05;;
76357;SDS011;65185;21.060;105.826;2023-04-19T00:50:43;72.57;;;42.55;;
76357;SDS011;65185;21.060;105.826;2023-04-19T00:53:10;60.05;;;38.65;;
76357;SDS011;65185;21.060;105.826;2023-04-19T00:55:39;83.18;;;46.25;;
76357;SDS011;65185;21.060;105.826;2023-04-19T00:58:07;79.22;;;43.15;;
76357;SDS011;65185;21.060;105.826;2023-04-19T01:00:34;76.78;;;42.38;;
76357;SDS011;65185;21.060;105.826;2023-04-19T01:03:01;85.28;;;44.50;;
76357;SDS011;65185;21.060;105.826;2023-04-19T01:05:28;86.05;;;44.13;;
76357;SDS011;65185;21.060;105.826;2023-04-19T01:07:55;86.18;;;46.08;;
76357;SDS011;65185;21.060;105.826;2023-04-19T01:10:22;73.45;;;41.33;;
76357;SDS011;65185;21.060;105.826;2023-04-19T01:12:48;85.35;;;46.50;;
76357;SDS011;65185;21.060;105.826;2023-04-19T01:15:14;84.68;;;46.13;;
76357;SDS011;65185;21.060;105.826;2023-04-19T01:17:41;83.38;;;45.75;;
76357;SDS011;65185;21.060;105.826;2023-04-19T01:20:08;86.55;;;48.05;;
76357;SDS011;65185;21.060;105.826;2023-04-19T01:22:35;83.55;;;44.15;;
76357;SDS011;65185;21.060;105.826;2023-04-19T01:25:02;83.30;;;45.67;;
76357;SDS011;65185;21.060;105.826;2023-04-19T01:27:29;86.03;;;47.58;;
76357;SDS011;65185;21.060;105.826;2023-04-19T01:29:55;89.28;;;47.15;;
76357;SDS011;65185;21.060;105.826;2023-04-19T01:32:22;83.38;;;46.05;;
76357;SDS011;65185;21.060;105.826;2023-04-19T01:34:51;73.45;;;43.17;;
76357;SDS011;65185;21.060;105.826;2023-04-19T01:37:17;78.28;;;43.95;;
76357;SDS011;65185;21.060;105.826;2023-04-19T01:39:46;83.88;;;46.83;;
76357;SDS011;65185;21.060;105.826;2023-04-19T01:42:12;78.18;;;44.17;;
76357;SDS011;65185;21.060;105.826;2023-04-19T01:44:39;81.07;;;45.55;;
76357;SDS011;65185;21.060;105.826;2023-04-19T01:47:06;92.28;;;47.22;;
76357;SDS011;65185;21.060;105.826;2023-04-19T01:49:32;81.78;;;46.15;;
76357;SDS011;65185;21.060;105.826;2023-04-19T01:51:58;79.93;;;44.47;;
76357;SDS011;65185;21.060;105.826;2023-04-19T01:54:25;83.13;;;46.13;;
76357;SDS011;65185;21.060;105.826;2023-04-19T01:56:51;85.05;;;46.67;;
76357;SDS011;65185;21.060;105.826;2023-04-19T01:59:18;94.18;;;48.65;;
76357;SDS011;65185;21.060;105.826;2023-04-19T02:01:44;78.40;;;45.42;;
76357;SDS011;65185;21.060;105.826;2023-04-19T02:04:11;91.25;;;46.22;;
76357;SDS011;65185;21.060;105.826;2023-04-19T02:06:37;87.63;;;43.97;;
76357;SDS011;65185;21.060;105.826;2023-04-19T02:09:03;84.50;;;42.92;;
76357;SDS011;65185;21.060;105.826;2023-04-19T02:11:30;91.35;;;43.78;;
76357;SDS011;65185;21.060;105.826;2023-04-19T02:13:56;82.28;;;43.03;;
76357;SDS011;65185;21.060;105.826;2023-04-19T02:16:23;83.15;;;42.85;;
76357;SDS011;65185;21.060;105.826;2023-04-19T02:18:49;85.25;;;43.58;;
76357;SDS011;65185;21.060;105.826;2023-04-19T02:21:16;86.07;;;45.08;;
76357;SDS011;65185;21.060;105.826;2023-04-19T02:23:42;85.95;;;45.15;;
76357;SDS011;65185;21.060;105.826;2023-04-19T02:26:09;90.80;;;45.95;;
76357;SDS011;65185;21.060;105.826;2023-04-19T02:28:35;86.30;;;45.60;;
76357;SDS011;65185;21.060;105.826;2023-04-19T02:31:06;78.75;;;42.63;;
76357;SDS011;65185;21.060;105.826;2023-04-19T02:33:32;82.70;;;44.45;;
76357;SDS011;65185;21.060;105.826;2023-04-19T02:35:59;83.25;;;43.17;;
76357;SDS011;65185;21.060;105.826;2023-04-19T02:38:25;85.97;;;44.10;;
76357;SDS011;65185;21.060;105.826;2023-04-19T02:40:52;75.32;;;41.38;;
76357;SDS011;65185;21.060;105.826;2023-04-19T02:43:19;86.05;;;46.22;;
76357;SDS011;65185;21.060;105.826;2023-04-19T02:45:45;82.10;;;44.05;;
76357;SDS011;65185;21.060;105.826;2023-04-19T02:48:11;80.28;;;43.92;;
76357;SDS011;65185;21.060;105.826;2023-04-19T02:50:38;87.70;;;45.47;;
76357;SDS011;65185;21.060;105.826;2023-04-19T02:53:05;88.80;;;45.33;;
76357;SDS011;65185;21.060;105.826;2023-04-19T02:55:31;80.82;;;44.35;;
76357;SDS011;65185;21.060;105.826;2023-04-19T02:57:58;97.95;;;49.38;;
76357;SDS011;65185;21.060;105.826;2023-04-19T03:00:24;85.50;;;46.72;;
76357;SDS011;65185;21.060;105.826;2023-04-19T03:02:50;90.13;;;47.92;;
76357;SDS011;65185;21.060;105.826;2023-04-19T03:05:17;91.25;;;49.92;;
76357;SDS011;65185;21.060;105.826;2023-04-19T03:07:43;84.20;;;48.70;;
76357;SDS011;65185;21.060;105.826;2023-04-19T03:10:10;89.55;;;46.80;;
76357;SDS011;65185;21.060;105.826;2023-04-19T03:12:36;77.85;;;45.03;;
76357;SDS011;65185;21.060;105.826;2023-04-19T03:15:03;83.40;;;47.28;;
76357;SDS011;65185;21.060;105.826;2023-04-19T03:17:30;84.13;;;45.83;;
76357;SDS011;65185;21.060;105.826;2023-04-19T03:19:57;79.55;;;43.70;;
76357;SDS011;65185;21.060;105.826;2023-04-19T03:22:24;86.60;;;46.70;;
76357;SDS011;65185;21.060;105.826;2023-04-19T03:24:50;84.72;;;45.47;;
76357;SDS011;65185;21.060;105.826;2023-04-19T03:27:17;78.90;;;42.15;;
76357;SDS011;65185;21.060;105.826;2023-04-19T03:29:43;79.18;;;45.20;;
76357;SDS011;65185;21.060;105.826;2023-04-19T03:32:09;81.50;;;45.33;;
76357;SDS011;65185;21.060;105.826;2023-04-19T03:34:36;78.38;;;46.55;;
76357;SDS011;65185;21.060;105.826;2023-04-19T03:37:02;78.55;;;44.47;;
76357;SDS011;65185;21.060;105.826;2023-04-19T03:39:29;84.70;;;47.10;;
76357;SDS011;65185;21.060;105.826;2023-04-19T03:41:56;78.18;;;45.88;;
76357;SDS011;65185;21.060;105.826;2023-04-19T03:44:22;88.22;;;50.22;;
76357;SDS011;65185;21.060;105.826;2023-04-19T03:46:49;85.68;;;48.22;;
76357;SDS011;65185;21.060;105.826;2023-04-19T03:49:15;81.15;;;47.38;;
76357;SDS011;65185;21.060;105.826;2023-04-19T03:51:42;85.95;;;48.30;;
76357;SDS011;65185;21.060;105.826;2023-04-19T03:54:08;80.20;;;46.42;;
76357;SDS011;65185;21.060;105.826;2023-04-19T03:56:35;91.28;;;51.03;;
76357;SDS011;65185;21.060;105.826;2023-04-19T03:59:01;79.55;;;47.58;;
76357;SDS011;65185;21.060;105.826;2023-04-19T04:01:27;90.57;;;49.75;;
76357;SDS011;65185;21.060;105.826;2023-04-19T04:03:54;83.88;;;47.08;;
76357;SDS011;65185;21.060;105.826;2023-04-19T04:06:20;94.05;;;51.40;;
76357;SDS011;65185;21.060;105.826;2023-04-19T04:08:47;79.88;;;48.15;;
76357;SDS011;65185;21.060;105.826;2023-04-19T04:11:13;93.28;;;54.50;;
76357;SDS011;65185;21.060;105.826;2023-04-19T04:13:40;91.65;;;52.05;;
76357;SDS011;65185;21.060;105.826;2023-04-19T04:16:07;86.85;;;51.97;;
76357;SDS011;65185;21.060;105.826;2023-04-19T04:18:33;93.45;;;53.55;;
76357;SDS011;65185;21.060;105.826;2023-04-19T04:21:00;92.15;;;52.67;;
76357;SDS011;65185;21.060;105.826;2023-04-19T04:23:26;88.75;;;51.38;;
76357;SDS011;65185;21.060;105.826;2023-04-19T04:25:56;85.20;;;49.65;;
76357;SDS011;65185;21.060;105.826;2023-04-19T04:28:25;91.18;;;53.67;;
76357;SDS011;65185;21.060;105.826;2023-04-19T04:30:56;84.82;;;49.97;;
76357;SDS011;65185;21.060;105.826;2023-04-19T04:33:23;85.97;;;53.72;;
76357;SDS011;65185;21.060;105.826;2023-04-19T04:35:53;71.75;;;47.60;;
76357;SDS011;65185;21.060;105.826;2023-04-19T04:38:21;91.45;;;53.60;;
76357;SDS011;65185;21.060;105.826;2023-04-19T04:40:53;93.20;;;54.15;;
76357;SDS011;65185;21.060;105.826;2023-04-19T04:43:23;92.65;;;54.65;;
76357;SDS011;65185;21.060;105.826;2023-04-19T04:45:50;89.75;;;54.60;;
76357;SDS011;65185;21.060;105.826;2023-04-19T04:48:19;91.85;;;56.35;;
76357;SDS011;65185;21.060;105.826;2023-04-19T04:50:46;94.43;;;58.47;;
76357;SDS011;65185;21.060;105.826;2023-04-19T04:53:15;95.32;;;56.38;;
76357;SDS011;65185;21.060;105.826;2023-04-19T04:55:42;93.97;;;56.90;;
76357;SDS011;65185;21.060;105.826;2023-04-19T04:58:08;96.63;;;59.33;;
76357;SDS011;65185;21.060;105.826;2023-04-19T05:00:34;101.88;;;62.25;;
76357;SDS011;65185;21.060;105.826;2023-04-19T05:03:01;101.57;;;62.40;;
76357;SDS011;65185;21.060;105.826;2023-04-19T05:05:27;96.97;;;61.00;;
76357;SDS011;65185;21.060;105.826;2023-04-19T05:07:54;106.65;;;65.68;;
76357;SDS011;65185;21.060;105.826;2023-04-19T05:10:20;114.78;;;68.20;;
76357;SDS011;65185;21.060;105.826;2023-04-19T05:12:47;103.43;;;64.50;;
76357;SDS011;65185;21.060;105.826;2023-04-19T05:15:13;110.75;;;65.57;;
76357;SDS011;65185;21.060;105.826;2023-04-19T05:17:40;104.03;;;64.32;;
76357;SDS011;65185;21.060;105.826;2023-04-19T05:20:07;107.25;;;65.75;;
76357;SDS011;65185;21.060;105.826;2023-04-19T05:22:34;104.65;;;63.10;;
76357;SDS011;65185;21.060;105.826;2023-04-19T05:25:01;111.20;;;67.15;;
76357;SDS011;65185;21.060;105.826;2023-04-19T05:27:28;107.07;;;65.63;;
76357;SDS011;65185;21.060;105.826;2023-04-19T05:29:54;112.70;;;66.63;;
76357;SDS011;65185;21.060;105.826;2023-04-19T05:32:21;106.28;;;63.17;;
76357;SDS011;65185;21.060;105.826;2023-04-19T05:34:47;108.75;;;64.97;;
76357;SDS011;65185;21.060;105.826;2023-04-19T05:37:13;112.78;;;67.75;;
76357;SDS011;65185;21.060;105.826;2023-04-19T05:39:40;111.88;;;69.22;;
76357;SDS011;65185;21.060;105.826;2023-04-19T05:42:06;110.88;;;67.78;;
76357;SDS011;65185;21.060;105.826;2023-04-19T05:44:33;111.50;;;67.68;;
76357;SDS011;65185;21.060;105.826;2023-04-19T05:46:59;106.88;;;66.97;;
76357;SDS011;65185;21.060;105.826;2023-04-19T05:49:25;113.88;;;69.35;;
76357;SDS011;65185;21.060;105.826;2023-04-19T05:51:52;104.78;;;68.53;;
76357;SDS011;65185;21.060;105.826;2023-04-19T05:54:19;114.13;;;69.05;;
76357;SDS011;65185;21.060;105.826;2023-04-19T05:56:46;116.80;;;71.82;;
76357;SDS011;65185;21.060;105.826;2023-04-19T05:59:12;119.97;;;73.47;;
76357;SDS011;65185;21.060;105.826;2023-04-19T06:01:39;126.90;;;74.78;;
76357;SDS011;65185;21.060;105.826;2023-04-19T06:04:06;120.15;;;76.15;;
76357;SDS011;65185;21.060;105.826;2023-04-19T06:06:32;128.10;;;75.20;;
76357;SDS011;65185;21.060;105.826;2023-04-19T06:08:58;124.13;;;75.00;;
76357;SDS011;65185;21.060;105.826;2023-04-19T06:11:25;119.03;;;74.13;;
76357;SDS011;65185;21.060;105.826;2023-04-19T06:13:51;120.60;;;71.35;;
76357;SDS011;65185;21.060;105.826;2023-04-19T06:16:18;125.68;;;75.65;;
76357;SDS011;65185;21.060;105.826;2023-04-19T06:18:45;120.63;;;74.18;;
76357;SDS011;65185;21.060;105.826;2023-04-19T06:21:11;120.85;;;74.43;;
76357;SDS011;65185;21.060;105.826;2023-04-19T06:23:38;131.07;;;77.47;;
76357;SDS011;65185;21.060;105.826;2023-04-19T06:29:26;132.35;;;78.25;;
76357;SDS011;65185;21.060;105.826;2023-04-19T06:31:52;122.70;;;74.35;;
76357;SDS011;65185;21.060;105.826;2023-04-19T06:34:19;118.53;;;73.45;;
76357;SDS011;65185;21.060;105.826;2023-04-19T06:36:46;126.53;;;78.43;;
76357;SDS011;65185;21.060;105.826;2023-04-19T06:39:13;122.05;;;75.95;;
76357;SDS011;65185;21.060;105.826;2023-04-19T06:41:40;134.13;;;79.95;;
76357;SDS011;65185;21.060;105.826;2023-04-19T06:44:07;127.20;;;77.50;;
76357;SDS011;65185;21.060;105.826;2023-04-19T06:46:33;127.45;;;79.03;;
76357;SDS011;65185;21.060;105.826;2023-04-19T06:49:00;135.73;;;81.03;;
76357;SDS011;65185;21.060;105.826;2023-04-19T06:51:42;132.40;;;80.00;;
76357;SDS011;65185;21.060;105.826;2023-04-19T06:54:08;129.63;;;79.60;;
76357;SDS011;65185;21.060;105.826;2023-04-19T06:56:39;129.95;;;77.55;;
76357;SDS011;65185;21.060;105.826;2023-04-19T06:59:19;132.35;;;78.22;;
76357;SDS011;65185;21.060;105.826;2023-04-19T07:01:46;126.25;;;77.55;;
76357;SDS011;65185;21.060;105.826;2023-04-19T07:04:13;134.05;;;79.07;;
76357;SDS011;65185;21.060;105.826;2023-04-19T07:06:40;136.68;;;78.03;;
76357;SDS011;65185;21.060;105.826;2023-04-19T07:09:07;120.88;;;74.43;;
76357;SDS011;65185;21.060;105.826;2023-04-19T07:11:37;128.75;;;77.03;;
76357;SDS011;65185;21.060;105.826;2023-04-19T07:14:04;136.23;;;78.93;;
76357;SDS011;65185;21.060;105.826;2023-04-19T07:16:31;129.88;;;77.78;;
76357;SDS011;65185;21.060;105.826;2023-04-19T07:18:58;136.57;;;80.20;;
76357;SDS011;65185;21.060;105.826;2023-04-19T07:21:24;131.25;;;81.03;;
76357;SDS011;65185;21.060;105.826;2023-04-19T07:23:54;125.50;;;75.40;;
76357;SDS011;65185;21.060;105.826;2023-04-19T07:26:21;130.65;;;80.32;;
76357;SDS011;65185;21.060;105.826;2023-04-19T07:28:48;123.90;;;77.15;;
76357;SDS011;65185;21.060;105.826;2023-04-19T07:31:15;134.27;;;80.38;;
76357;SDS011;65185;21.060;105.826;2023-04-19T07:33:43;133.15;;;80.75;;
76357;SDS011;65185;21.060;105.826;2023-04-19T07:36:10;130.60;;;78.80;;
76357;SDS011;65185;21.060;105.826;2023-04-19T07:38:37;124.90;;;78.43;;
76357;SDS011;65185;21.060;105.826;2023-04-19T07:41:03;126.53;;;82.30;;
76357;SDS011;65185;21.060;105.826;2023-04-19T07:43:30;132.82;;;81.53;;
76357;SDS011;65185;21.060;105.826;2023-04-19T07:45:57;137.68;;;83.43;;
76357;SDS011;65185;21.060;105.826;2023-04-19T07:48:24;138.25;;;81.60;;
76357;SDS011;65185;21.060;105.826;2023-04-19T07:50:51;142.32;;;85.20;;
76357;SDS011;65185;21.060;105.826;2023-04-19T07:53:18;138.45;;;88.20;;
76357;SDS011;65185;21.060;105.826;2023-04-19T07:55:44;134.57;;;80.75;;
76357;SDS011;65185;21.060;105.826;2023-04-19T07:58:11;134.13;;;83.00;;
76357;SDS011;65185;21.060;105.826;2023-04-19T08:00:38;132.93;;;80.80;;
76357;SDS011;65185;21.060;105.826;2023-04-19T08:03:05;138.18;;;84.35;;
76357;SDS011;65185;21.060;105.826;2023-04-19T08:05:31;132.70;;;80.63;;
76357;SDS011;65185;21.060;105.826;2023-04-19T08:07:59;145.20;;;88.45;;
76357;SDS011;65185;21.060;105.826;2023-04-19T08:10:25;138.38;;;83.85;;
76357;SDS011;65185;21.060;105.826;2023-04-19T08:12:53;150.50;;;88.13;;
76357;SDS011;65185;21.060;105.826;2023-04-19T08:15:20;151.32;;;88.05;;
76357;SDS011;65185;21.060;105.826;2023-04-19T08:17:46;138.75;;;88.13;;
76357;SDS011;65185;21.060;105.826;2023-04-19T08:20:13;147.45;;;89.78;;
76357;SDS011;65185;21.060;105.826;2023-04-19T08:22:40;151.90;;;89.68;;
76357;SDS011;65185;21.060;105.826;2023-04-19T08:25:07;143.35;;;86.15;;
76357;SDS011;65185;21.060;105.826;2023-04-19T08:27:34;148.02;;;87.50;;
76357;SDS011;65185;21.060;105.826;2023-04-19T08:30:01;136.43;;;82.85;;
76357;SDS011;65185;21.060;105.826;2023-04-19T08:32:28;145.93;;;88.53;;
76357;SDS011;65185;21.060;105.826;2023-04-19T08:34:55;129.75;;;83.43;;
76357;SDS011;65185;21.060;105.826;2023-04-19T08:37:21;147.45;;;90.28;;
76357;SDS011;65185;21.060;105.826;2023-04-19T08:39:49;142.48;;;86.30;;
76357;SDS011;65185;21.060;105.826;2023-04-19T08:42:15;140.85;;;87.35;;
76357;SDS011;65185;21.060;105.826;2023-04-19T08:44:42;148.00;;;89.45;;
76357;SDS011;65185;21.060;105.826;2023-04-19T08:47:10;146.38;;;89.38;;
76357;SDS011;65185;21.060;105.826;2023-04-19T08:49:40;137.48;;;86.72;;
76357;SDS011;65185;21.060;105.826;2023-04-19T08:52:07;142.85;;;87.28;;
76357;SDS011;65185;21.060;105.826;2023-04-19T08:54:37;146.57;;;89.13;;
76357;SDS011;65185;21.060;105.826;2023-04-19T08:57:04;144.93;;;91.47;;
76357;SDS011;65185;21.060;105.826;2023-04-19T08:59:33;136.07;;;85.65;;
76357;SDS011;65185;21.060;105.826;2023-04-19T09:02:00;134.90;;;87.25;;
76357;SDS011;65185;21.060;105.826;2023-04-19T09:04:27;160.95;;;93.35;;
76357;SDS011;65185;21.060;105.826;2023-04-19T09:06:54;152.35;;;91.70;;
76357;SDS011;65185;21.060;105.826;2023-04-19T09:09:25;161.43;;;93.15;;
76357;SDS011;65185;21.060;105.826;2023-04-19T09:11:53;134.63;;;86.28;;
76357;SDS011;65185;21.060;105.826;2023-04-19T09:14:20;153.27;;;93.40;;
76357;SDS011;65185;21.060;105.826;2023-04-19T09:16:48;153.82;;;93.88;;
76357;SDS011;65185;21.060;105.826;2023-04-19T09:19:16;157.13;;;92.75;;
76357;SDS011;65185;21.060;105.826;2023-04-19T09:21:43;153.07;;;92.22;;
76357;SDS011;65185;21.060;105.826;2023-04-19T09:24:11;153.68;;;91.88;;
76357;SDS011;65185;21.060;105.826;2023-04-19T09:26:37;146.68;;;90.47;;
76357;SDS011;65185;21.060;105.826;2023-04-19T09:29:18;155.70;;;92.68;;
76357;SDS011;65185;21.060;105.826;2023-04-19T09:31:55;148.90;;;91.47;;
76357;SDS011;65185;21.060;105.826;2023-04-19T09:34:23;153.45;;;91.68;;
76357;SDS011;65185;21.060;105.826;2023-04-19T09:36:50;154.18;;;91.72;;
76357;SDS011;65185;21.060;105.826;2023-04-19T09:39:32;154.68;;;93.45;;
76357;SDS011;65185;21.060;105.826;2023-04-19T09:42:00;162.10;;;93.88;;
76357;SDS011;65185;21.060;105.826;2023-04-19T09:44:27;153.10;;;93.97;;
76357;SDS011;65185;21.060;105.826;2023-04-19T09:46:54;147.60;;;89.97;;
76357;SDS011;65185;21.060;105.826;2023-04-19T09:51:55;146.55;;;89.22;;
76357;SDS011;65185;21.060;105.826;2023-04-19T09:54:23;159.98;;;93.72;;
76357;SDS011;65185;21.060;105.826;2023-04-19T09:56:54;151.63;;;88.25;;
76357;SDS011;65185;21.060;105.826;2023-04-19T09:59:21;149.73;;;89.70;;
76357;SDS011;65185;21.060;105.826;2023-04-19T10:01:54;152.73;;;88.78;;
76357;SDS011;65185;21.060;105.826;2023-04-19T10:04:21;146.85;;;88.10;;
76357;SDS011;65185;21.060;105.826;2023-04-19T10:06:49;140.30;;;86.13;;
76357;SDS011;65185;21.060;105.826;2023-04-19T10:09:17;150.80;;;88.78;;
76357;SDS011;65185;21.060;105.826;2023-04-19T10:11:49;152.80;;;89.57;;
76357;SDS011;65185;21.060;105.826;2023-04-19T10:14:25;146.98;;;89.28;;
76357;SDS011;65185;21.060;105.826;2023-04-19T10:16:57;157.43;;;91.40;;
76357;SDS011;65185;21.060;105.826;2023-04-19T10:19:25;144.32;;;88.63;;
76357;SDS011;65185;21.060;105.826;2023-04-19T10:21:53;151.88;;;89.65;;
76357;SDS011;65185;21.060;105.826;2023-04-19T10:24:21;146.07;;;90.07;;
76357;SDS011;65185;21.060;105.826;2023-04-19T10:32:22;161.63;;;91.15;;
76357;SDS011;65185;21.060;105.826;2023-04-19T10:34:52;155.90;;;93.85;;
76357;SDS011;65185;21.060;105.826;2023-04-19T10:37:22;157.75;;;93.60;;
76357;SDS011;65185;21.060;105.826;2023-04-19T10:39:51;150.35;;;91.07;;
76357;SDS011;65185;21.060;105.826;2023-04-19T10:42:17;154.32;;;95.25;;
76357;SDS011;65185;21.060;105.826;2023-04-19T10:47:48;150.27;;;90.53;;
76357;SDS011;65185;21.060;105.826;2023-04-19T10:52:43;156.57;;;90.18;;
76357;SDS011;65185;21.060;105.826;2023-04-19T10:55:14;146.48;;;89.75;;
76357;SDS011;65185;21.060;105.826;2023-04-19T11:00:31;143.50;;;86.70;;
76357;SDS011;65185;21.060;105.826;2023-04-19T11:03:00;163.52;;;90.72;;
76357;SDS011;65185;21.060;105.826;2023-04-19T11:06:14;147.88;;;85.50;;
76357;SDS011;65185;21.060;105.826;2023-04-19T11:08:46;138.70;;;80.10;;
76357;SDS011;65185;21.060;105.826;2023-04-19T11:11:12;126.93;;;73.78;;
76357;SDS011;65185;21.060;105.826;2023-04-19T11:13:42;115.13;;;67.32;;
76357;SDS011;65185;21.060;105.826;2023-04-19T11:16:09;117.97;;;62.72;;
76357;SDS011;65185;21.060;105.826;2023-04-19T11:18:36;105.65;;;57.72;;
76357;SDS011;65185;21.060;105.826;2023-04-19T11:21:03;101.95;;;53.45;;
76357;SDS011;65185;21.060;105.826;2023-04-19T11:23:30;99.63;;;51.55;;
76357;SDS011;65185;21.060;105.826;2023-04-19T11:25:57;88.07;;;49.92;;
76357;SDS011;65185;21.060;105.826;2023-04-19T11:28:24;94.45;;;50.17;;
76357;SDS011;65185;21.060;105.826;2023-04-19T11:30:57;86.63;;;48.20;;
76357;SDS011;65185;21.060;105.826;2023-04-19T11:33:23;93.97;;;48.55;;
76357;SDS011;65185;21.060;105.826;2023-04-19T11:35:51;89.13;;;48.95;;
76357;SDS011;65185;21.060;105.826;2023-04-19T11:38:18;89.80;;;47.20;;
76357;SDS011;65185;21.060;105.826;2023-04-19T11:40:45;84.32;;;46.83;;
76357;SDS011;65185;21.060;105.826;2023-04-19T11:43:12;92.72;;;46.00;;
76357;SDS011;65185;21.060;105.826;2023-04-19T11:45:38;90.72;;;46.67;;
76357;SDS011;65185;21.060;105.826;2023-04-19T11:48:06;84.60;;;43.83;;
76357;SDS011;65185;21.060;105.826;2023-04-19T11:50:42;88.60;;;46.85;;
76357;SDS011;65185;21.060;105.826;2023-04-19T11:53:12;91.38;;;46.13;;
76357;SDS011;65185;21.060;105.826;2023-04-19T11:55:41;82.25;;;43.88;;
76357;SDS011;65185;21.060;105.826;2023-04-19T11:58:21;87.97;;;45.25;;
76357;SDS011;65185;21.060;105.826;2023-04-19T12:00:50;86.32;;;46.65;;
76357;SDS011;65185;21.060;105.826;2023-04-19T12:03:25;91.20;;;46.63;;
76357;SDS011;65185;21.060;105.826;2023-04-19T12:05:56;85.55;;;44.10;;
76357;SDS011;65185;21.060;105.826;2023-04-19T12:08:31;82.18;;;42.72;;
76357;SDS011;65185;21.060;105.826;2023-04-19T12:10:59;79.63;;;42.55;;
76357;SDS011;65185;21.060;105.826;2023-04-19T12:13:28;87.45;;;43.83;;
76357;SDS011;65185;21.060;105.826;2023-04-19T12:15:56;83.28;;;43.15;;
76357;SDS011;65185;21.060;105.826;2023-04-19T12:18:23;86.15;;;43.83;;
76357;SDS011;65185;21.060;105.826;2023-04-19T12:20:50;84.05;;;43.13;;
76357;SDS011;65185;21.060;105.826;2023-04-19T12:23:19;80.90;;;43.58;;
76357;SDS011;65185;21.060;105.826;2023-04-19T12:25:47;84.43;;;40.67;;
76357;SDS011;65185;21.060;105.826;2023-04-19T12:28:14;81.55;;;40.47;;
76357;SDS011;65185;21.060;105.826;2023-04-19T12:30:41;79.10;;;40.72;;
76357;SDS011;65185;21.060;105.826;2023-04-19T12:33:08;76.25;;;41.40;;
76357;SDS011;65185;21.060;105.826;2023-04-19T12:35:35;89.53;;;43.88;;
76357;SDS011;65185;21.060;105.826;2023-04-19T12:38:02;90.15;;;43.35;;
76357;SDS011;65185;21.060;105.826;2023-04-19T12:40:29;76.53;;;41.15;;
76357;SDS011;65185;21.060;105.826;2023-04-19T12:42:56;79.90;;;43.47;;
76357;SDS011;65185;21.060;105.826;2023-04-19T12:45:23;78.88;;;41.63;;
76357;SDS011;65185;21.060;105.826;2023-04-19T12:47:50;76.82;;;41.35;;
76357;SDS011;65185;21.060;105.826;2023-04-19T12:50:17;86.15;;;43.88;;
76357;SDS011;65185;21.060;105.826;2023-04-19T12:52:44;87.32;;;44.97;;
76357;SDS011;65185;21.060;105.826;2023-04-19T12:55:11;84.78;;;43.80;;
76357;SDS011;65185;21.060;105.826;2023-04-19T12:57:38;88.72;;;45.13;;
76357;SDS011;65185;21.060;105.826;2023-04-19T13:00:05;98.85;;;47.22;;
76357;SDS011;65185;21.060;105.826;2023-04-19T13:02:35;81.28;;;42.95;;
76357;SDS011;65185;21.060;105.826;2023-04-19T13:05:02;78.43;;;44.17;;
76357;SDS011;65185;21.060;105.826;2023-04-19T13:07:32;89.88;;;44.95;;
76357;SDS011;65185;21.060;105.826;2023-04-19T13:09:59;88.68;;;44.33;;
76357;SDS011;65185;21.060;105.826;2023-04-19T13:12:26;88.43;;;46.38;;
76357;SDS011;65185;21.060;105.826;2023-04-19T13:14:53;85.95;;;44.83;;
76357;SDS011;65185;21.060;105.826;2023-04-19T13:17:22;88.53;;;44.20;;
76357;SDS011;65185;21.060;105.826;2023-04-19T13:19:49;86.88;;;44.72;;
76357;SDS011;65185;21.060;105.826;2023-04-19T13:22:16;87.85;;;45.03;;
76357;SDS011;65185;21.060;105.826;2023-04-19T13:24:43;85.80;;;45.80;;
76357;SDS011;65185;21.060;105.826;2023-04-19T13:27:10;89.97;;;46.42;;
76357;SDS011;65185;21.060;105.826;2023-04-19T13:29:37;93.25;;;48.38;;
76357;SDS011;65185;21.060;105.826;2023-04-19T13:32:05;94.47;;;49.60;;
76357;SDS011;65185;21.060;105.826;2023-04-19T13:34:37;91.13;;;48.00;;
76357;SDS011;65185;21.060;105.826;2023-04-19T13:37:05;90.90;;;48.72;;
76357;SDS011;65185;21.060;105.826;2023-04-19T13:39:33;88.63;;;47.50;;
76357;SDS011;65185;21.060;105.826;2023-04-19T13:42:00;99.40;;;51.15;;
76357;SDS011;65185;21.060;105.826;2023-04-19T13:44:27;93.43;;;48.38;;
76357;SDS011;65185;21.060;105.826;2023-04-19T13:46:54;89.72;;;47.70;;
76357;SDS011;65185;21.060;105.826;2023-04-19T13:49:22;93.40;;;49.22;;
76357;SDS011;65185;21.060;105.826;2023-04-19T13:51:49;86.85;;;46.78;;
76357;SDS011;65185;21.060;105.826;2023-04-19T13:54:16;95.10;;;48.58;;
76357;SDS011;65185;21.060;105.826;2023-04-19T13:56:43;87.85;;;47.38;;
76357;SDS011;65185;21.060;105.826;2023-04-19T13:59:11;89.90;;;47.92;;
76357;SDS011;65185;21.060;105.826;2023-04-19T14:01:38;90.55;;;47.85;;
76357;SDS011;65185;21.060;105.826;2023-04-19T14:04:06;93.90;;;45.95;;
76357;SDS011;65185;21.060;105.826;2023-04-19T14:06:32;85.35;;;44.10;;
76357;SDS011;65185;21.060;105.826;2023-04-19T14:09:00;87.40;;;44.80;;
76357;SDS011;65185;21.060;105.826;2023-04-19T14:11:26;92.13;;;47.67;;
76357;SDS011;65185;21.060;105.826;2023-04-19T14:13:54;92.03;;;47.90;;